Time;durP1;ratioP1;P1;durP2;ratioP2;P2;SDS_P1;SDS_P2;PMS_P1;PMS_P2;Temp;Humidity;BMP_temperature;BMP_pressure;BME280_temperature;BME280_humidity;BME280_pressure;Samples;Min_cycle;Max_cycle;Signal;HPM_P1;HPM_P2
2023/03/22 00:01:21;;;;;;;5.95;5.32;;;15.80;60.20;;;;;;5029194;28;20045;-47
2023/03/22 00:03:50;;;;;;;5.32;4.82;;;15.70;60.00;;;;;;5040068;28;20038;-45
2023/03/22 00:06:17;;;;;;;7.15;5.38;;;15.70;60.10;;;;;;5039863;28;20045;-46
2023/03/22 00:08:49;;;;;;;8.00;6.18;;;15.60;60.10;;;;;;5041237;28;20044;-48
2023/03/22 00:11:24;;;;;;;7.07;6.38;;;15.50;60.20;;;;;;5042168;28;20045;-51
2023/03/22 00:13:53;;;;;;;7.20;6.10;;;15.50;60.50;;;;;;5051362;28;20121;-47
2023/03/22 00:16:23;;;;;;;9.75;6.30;;;15.40;60.70;;;;;;5027880;28;20048;-49
2023/03/22 00:18:52;;;;;;;9.57;6.07;;;15.40;60.90;;;;;;5044194;28;20095;-48
2023/03/22 00:21:27;;;;;;;8.13;6.70;;;15.30;61.00;;;;;;5042243;28;20069;-47
2023/03/22 00:23:56;;;;;;;8.18;6.68;;;15.40;61.40;;;;;;5037060;28;20422;-46
2023/03/22 00:26:23;;;;;;;7.15;6.43;;;15.30;61.20;;;;;;5048996;28;20128;-47
2023/03/22 00:28:49;;;;;;;8.10;6.50;;;15.30;61.40;;;;;;5048279;28;20033;-45
2023/03/22 00:31:16;;;;;;;11.27;6.50;;;15.30;61.50;;;;;;5041728;28;20041;-46
2023/03/22 00:33:43;;;;;;;9.18;7.55;;;15.20;61.60;;;;;;5041897;28;20044;-49
2023/03/22 00:36:11;;;;;;;9.52;6.30;;;15.20;61.60;;;;;;5043137;28;20047;-48
2023/03/22 00:38:39;;;;;;;8.70;7.05;;;15.20;61.60;;;;;;5018333;28;20045;-46
2023/03/22 00:41:25;;;;;;;9.23;6.72;;;15.20;61.60;;;;;;5029015;28;20041;-46
2023/03/22 00:43:56;;;;;;;9.07;6.68;;;15.20;61.80;;;;;;5021714;28;20506;-48
2023/03/22 00:46:29;;;;;;;8.05;6.85;;;15.10;61.40;;;;;;5047425;28;20053;-46
2023/03/22 00:49:00;;;;;;;10.88;7.32;;;15.10;61.70;;;;;;5043131;28;20494;-45
2023/03/22 00:51:29;;;;;;;8.15;6.43;;;15.10;61.60;;;;;;5036964;28;20045;-47
2023/03/22 00:53:55;;;;;;;9.73;6.25;;;15.10;62.30;;;;;;5035879;28;20485;-46
2023/03/22 00:56:27;;;;;;;8.85;6.60;;;15.00;61.70;;;;;;5023379;28;20041;-45
2023/03/22 00:59:00;;;;;;;8.75;6.40;;;15.00;61.80;;;;;;5021016;28;20401;-46
2023/03/22 01:01:27;;;;;;;7.80;6.97;;;14.90;61.70;;;;;;5043586;28;20386;-47
2023/03/22 01:03:58;;;;;;;8.40;6.93;;;14.90;61.80;;;;;;5022611;28;20132;-46
2023/03/22 01:06:27;;;;;;;7.15;6.40;;;14.90;61.90;;;;;;5023142;28;20041;-48
2023/03/22 01:08:56;;;;;;;8.55;6.65;;;14.80;61.90;;;;;;5026632;28;20061;-45
2023/03/22 01:11:33;;;;;;;8.60;6.53;;;14.80;62.00;;;;;;5016368;28;20036;-47
2023/03/22 01:14:09;;;;;;;11.20;6.43;;;14.70;62.10;;;;;;5049871;28;20040;-45
2023/03/22 01:16:42;;;;;;;6.13;5.47;;;14.70;62.10;;;;;;5032022;28;20052;-46
2023/03/22 01:19:11;;;;;;;8.45;6.53;;;14.60;62.20;;;;;;5024596;28;20124;-47
2023/03/22 01:21:40;;;;;;;9.18;6.65;;;14.50;62.30;;;;;;5026172;28;20509;-45
2023/03/22 01:24:08;;;;;;;8.50;6.50;;;14.50;62.40;;;;;;5049664;28;20068;-50
2023/03/22 01:26:35;;;;;;;8.85;6.88;;;14.50;62.50;;;;;;5032276;28;20048;-48
2023/03/22 01:29:05;;;;;;;8.00;6.30;;;14.50;62.70;;;;;;5015402;28;20420;-47
2023/03/22 01:31:34;;;;;;;7.78;6.13;;;14.40;62.70;;;;;;5043902;28;20046;-47
2023/03/22 01:34:04;;;;;;;9.88;6.32;;;14.40;62.70;;;;;;5019231;28;20033;-47
2023/03/22 01:36:35;;;;;;;9.38;6.43;;;14.30;62.80;;;;;;5022128;28;20609;-46
2023/03/22 01:39:08;;;;;;;8.55;6.10;;;14.30;62.90;;;;;;5038040;28;20061;-46
2023/03/22 01:41:36;;;;;;;7.85;7.03;;;14.30;63.20;;;;;;5024747;28;20135;-47
2023/03/22 01:44:16;;;;;;;7.38;6.47;;;14.20;63.10;;;;;;5021934;28;20047;-45
2023/03/22 01:46:48;;;;;;;7.20;5.57;;;14.20;63.40;;;;;;5023818;28;20505;-47
2023/03/22 01:49:24;;;;;;;8.50;6.33;;;14.20;63.40;;;;;;5029229;28;20045;-47
2023/03/22 01:51:53;;;;;;;7.85;6.03;;;14.20;63.60;;;;;;5049023;23;20565;-49
2023/03/22 01:54:42;;;;;;;7.60;6.68;;;14.10;63.30;;;;;;5070361;28;20137;-50
2023/03/22 01:57:25;;;;;;;6.78;5.15;;;14.10;63.50;;;;;;5071659;28;20036;-50
2023/03/22 01:59:57;;;;;;;7.90;5.63;;;14.00;63.30;;;;;;5068684;28;20221;-50
2023/03/22 02:02:54;;;;;;;9.93;6.00;;;14.00;63.50;;;;;;5082304;28;20081;-46
2023/03/22 02:05:34;;;;;;;7.20;5.07;;;14.00;63.50;;;;;;5071161;28;20085;-47
2023/03/22 02:08:04;;;;;;;7.50;5.80;;;14.00;63.70;;;;;;5065615;28;20508;-45
2023/03/22 02:10:48;;;;;;;6.47;5.50;;;14.00;63.70;;;;;;5071394;28;20040;-50
2023/03/22 02:13:37;;;;;;;7.43;4.95;;;13.90;63.70;;;;;;5062768;28;20535;-46
2023/03/22 02:16:55;;;;;;;7.50;4.95;;;13.90;63.90;;;;;;5038325;28;20429;-49
2023/03/22 02:19:29;;;;;;;5.28;4.72;;;13.90;64.40;;;;;;5068600;28;20050;-46
2023/03/22 02:22:20;;;;;;;6.15;4.68;;;13.90;63.90;;;;;;5070925;28;20042;-46
2023/03/22 02:25:17;;;;;;;5.90;4.68;;;13.90;64.00;;;;;;5078521;28;20504;-46
2023/03/22 02:28:06;;;;;;;5.75;4.55;;;13.90;64.60;;;;;;5070625;28;20507;-47
2023/03/22 02:30:46;;;;;;;5.18;4.68;;;13.80;64.60;;;;;;5084566;28;20119;-51
2023/03/22 02:33:35;;;;;;;;;;;13.80;64.20;;;;;;5066944;28;20052;-46
2023/03/22 02:36:29;;;;;;;6.10;4.28;;;13.80;64.20;;;;;;5051366;28;19921;-46
2023/03/22 02:39:16;;;;;;;4.03;3.63;;;13.70;63.80;;;;;;5063694;28;20040;-45
2023/03/22 02:41:56;;;;;;;7.80;4.57;;;13.70;64.20;;;;;;5085380;28;20404;-47
2023/03/22 02:44:39;;;;;;;5.75;4.50;;;13.70;64.50;;;;;;5070479;28;20044;-47
2023/03/22 02:47:21;;;;;;;7.50;4.93;;;13.60;64.20;;;;;;5082338;28;20119;-47
2023/03/22 02:49:58;;;;;;;5.95;3.92;;;13.70;64.60;;;;;;5081464;28;20097;-48
2023/03/22 02:52:40;;;;;;;5.05;4.22;;;13.60;64.50;;;;;;5069910;28;20079;-47
2023/03/22 02:55:30;;;;;;;6.25;3.85;;;13.60;65.10;;;;;;5083576;28;20036;-48
2023/03/22 02:58:06;;;;;;;6.10;4.22;;;13.60;64.90;;;;;;5070566;28;20038;-47
2023/03/22 03:00:35;;;;;;;6.20;4.10;;;13.60;64.80;;;;;;5067919;28;20503;-46
2023/03/22 03:03:11;;;;;;;5.47;4.15;;;13.50;64.80;;;;;;5089254;28;20066;-47
2023/03/22 03:06:01;;;;;;;4.72;3.65;;;13.50;65.00;;;;;;5088379;28;20056;-49
2023/03/22 03:08:29;;;;;;;6.38;4.25;;;13.60;65.60;;;;;;5085291;28;20036;-49
2023/03/22 03:11:01;;;;;;;4.90;3.25;;;13.60;65.10;;;;;;5068722;28;20036;-50
2023/03/22 03:13:29;;;;;;;4.55;3.22;;;13.60;65.20;;;;;;5062647;28;20048;-51
2023/03/22 03:16:11;;;;;;;5.43;3.88;;;13.60;65.10;;;;;;5089236;28;20039;-48
2023/03/22 03:19:11;;;;;;;4.57;3.53;;;13.60;65.10;;;;;;5068175;28;20053;-48
2023/03/22 03:21:54;;;;;;;5.10;3.13;;;13.60;65.50;;;;;;5068398;28;20440;-48
2023/03/22 03:24:49;;;;;;;6.68;3.83;;;13.60;65.50;;;;;;5072158;28;20106;-48
2023/03/22 03:27:43;;;;;;;6.15;3.60;;;13.60;65.50;;;;;;5082698;28;20048;-49
2023/03/22 03:30:21;;;;;;;4.40;3.58;;;13.60;65.50;;;;;;5070702;28;20054;-49
2023/03/22 03:32:52;;;;;;;4.10;2.97;;;13.60;64.90;;;;;;5092361;28;20052;-51
2023/03/22 03:35:27;;;;;;;5.85;2.85;;;13.60;65.10;;;;;;5073954;28;20127;-47
2023/03/22 03:38:06;;;;;;;6.13;3.20;;;13.50;65.10;;;;;;5063921;28;20044;-49
2023/03/22 03:40:39;;;;;;;4.75;3.58;;;13.50;65.30;;;;;;5065210;28;20040;-50
2023/03/22 03:43:09;;;;;;;5.85;3.72;;;13.50;65.10;;;;;;5074462;28;20032;-49
2023/03/22 03:45:38;;;;;;;;;;;13.50;65.00;;;;;;5074256;28;20044;-46
2023/03/22 03:48:09;;;;;;;5.45;2.63;;;13.50;65.20;;;;;;5073328;28;19920;-49
2023/03/22 03:50:36;;;;;;;4.03;3.15;;;13.50;64.70;;;;;;5071859;28;20036;-50
2023/03/22 03:53:05;;;;;;;4.88;3.15;;;13.50;64.80;;;;;;5069636;28;20080;-50
2023/03/22 03:55:32;;;;;;;7.47;3.97;;;13.50;65.60;;;;;;5070438;28;20040;-50
2023/03/22 03:57:59;;;;;;;5.20;2.92;;;13.50;65.10;;;;;;5073351;28;20040;-49
2023/03/22 04:00:34;;;;;;;4.55;3.28;;;13.50;65.10;;;;;;5073597;28;20415;-48
2023/03/22 04:03:30;;;;;;;3.47;2.78;;;13.50;65.60;;;;;;5070260;28;20131;-50
2023/03/22 04:06:27;;;;;;;3.42;2.63;;;13.50;65.30;;;;;;5064212;28;20113;-49
2023/03/22 04:09:03;;;;;;;5.85;3.10;;;13.50;65.20;;;;;;5058696;28;20051;-49
2023/03/22 04:11:36;;;;;;;3.92;3.20;;;13.50;65.20;;;;;;5071541;28;20052;-51
2023/03/22 04:14:13;;;;;;;4.82;3.22;;;13.40;65.20;;;;;;5073304;28;20036;-49
2023/03/22 04:16:46;;;;;;;5.53;3.28;;;13.40;65.50;;;;;;5071120;28;20051;-48
2023/03/22 04:19:18;;;;;;;3.92;2.70;;;13.40;65.20;;;;;;5073224;28;20044;-46
2023/03/22 04:21:51;;;;;;;7.38;3.17;;;13.40;65.90;;;;;;5085202;28;20037;-47
2023/03/22 04:24:22;;;;;;;4.78;3.10;;;13.40;65.40;;;;;;5073299;28;20043;-47
2023/03/22 04:26:51;;;;;;;3.50;2.85;;;13.40;65.30;;;;;;5065513;28;20520;-50
2023/03/22 04:29:30;;;;;;;5.55;3.08;;;13.40;65.30;;;;;;5070106;28;20048;-48
2023/03/22 04:32:11;;;;;;;5.45;3.00;;;13.40;65.20;;;;;;5070212;28;20126;-49
2023/03/22 04:34:41;;;;;;;3.30;2.65;;;13.40;65.30;;;;;;5071901;28;20067;-49
2023/03/22 04:37:10;;;;;;;4.05;2.70;;;13.40;65.20;;;;;;5074190;28;20496;-49
2023/03/22 04:39:57;;;;;;;4.68;2.70;;;13.40;65.20;;;;;;5068447;28;20051;-47
2023/03/22 04:42:38;;;;;;;4.45;3.03;;;13.40;65.20;;;;;;5062609;28;20055;-48
2023/03/22 04:45:15;;;;;;;4.25;3.00;;;13.40;65.20;;;;;;5073305;28;20521;-51
2023/03/22 04:47:52;;;;;;;5.55;3.20;;;13.40;65.20;;;;;;5072742;28;20424;-47
2023/03/22 04:50:21;;;;;;;5.45;2.83;;;13.40;65.20;;;;;;5065724;28;20047;-51
2023/03/22 04:52:53;;;;;;;5.25;2.60;;;13.40;65.30;;;;;;5071184;28;20048;-50
2023/03/22 04:55:26;;;;;;;4.68;2.88;;;13.30;65.40;;;;;;5073214;28;20036;-49
2023/03/22 04:57:57;;;;;;;4.55;2.88;;;13.40;65.50;;;;;;5072833;28;20044;-51
2023/03/22 05:00:30;;;;;;;4.25;2.67;;;13.40;65.60;;;;;;5071162;28;20040;-51
2023/03/22 05:03:02;;;;;;;5.82;2.72;;;13.40;65.70;;;;;;5073087;28;20093;-51
2023/03/22 05:05:47;;;;;;;4.13;2.90;;;13.40;65.40;;;;;;5069217;28;20040;-50
2023/03/22 05:08:14;;;;;;;3.05;2.75;;;13.40;65.40;;;;;;5072435;28;20048;-48
2023/03/22 05:10:45;;;;;;;4.95;3.15;;;13.40;65.30;;;;;;5072396;28;20522;-51
2023/03/22 05:13:14;;;;;;;6.40;3.35;;;13.40;65.40;;;;;;5072610;28;20040;-46
2023/03/22 05:15:44;;;;;;;5.00;2.90;;;13.40;65.40;;;;;;5070617;28;20048;-50
2023/03/22 05:18:23;;;;;;;3.90;2.83;;;13.40;65.50;;;;;;5056445;28;20040;-50
2023/03/22 05:20:52;;;;;;;3.67;3.15;;;13.40;65.60;;;;;;5069994;28;20098;-47
2023/03/22 05:23:24;;;;;;;5.65;2.85;;;13.40;65.50;;;;;;5062355;28;20036;-49
2023/03/22 05:26:00;;;;;;;4.97;3.10;;;13.40;65.50;;;;;;5079312;28;20111;-51
2023/03/22 05:28:27;;;;;;;7.17;3.23;;;13.40;65.60;;;;;;5063097;28;20043;-50
2023/03/22 05:31:10;;;;;;;3.58;2.05;;;13.40;65.50;;;;;;5066962;28;20036;-47
2023/03/22 05:33:49;;;;;;;5.38;3.35;;;13.40;65.40;;;;;;5059002;28;20453;-51
2023/03/22 05:36:30;;;;;;;4.93;2.85;;;13.40;65.40;;;;;;5061383;28;20496;-47
2023/03/22 05:39:17;;;;;;;3.80;2.60;;;13.40;65.50;;;;;;5058346;28;20666;-52
2023/03/22 05:41:45;;;;;;;4.97;2.95;;;13.40;65.40;;;;;;5085045;28;20044;-50
2023/03/22 05:44:12;;;;;;;5.30;3.25;;;13.30;65.40;;;;;;5060155;28;20094;-47
2023/03/22 05:46:47;;;;;;;4.28;3.47;;;13.30;65.50;;;;;;5057441;28;20048;-49
2023/03/22 05:49:26;;;;;;;5.60;2.95;;;13.30;65.50;;;;;;5066932;28;20526;-51
2023/03/22 05:51:54;;;;;;;3.17;2.70;;;13.30;65.60;;;;;;5059461;28;20137;-51
2023/03/22 05:54:23;;;;;;;5.53;2.70;;;13.30;65.70;;;;;;5063649;28;20090;-51
2023/03/22 05:56:51;;;;;;;5.25;3.13;;;13.30;65.70;;;;;;5060145;28;20115;-47
2023/03/22 05:59:21;;;;;;;5.07;2.95;;;13.30;65.80;;;;;;5066270;28;20039;-50
2023/03/22 06:01:49;;;;;;;6.97;2.67;;;13.40;65.90;;;;;;5058948;28;20068;-49
2023/03/22 06:04:21;;;;;;;3.67;2.70;;;13.40;65.90;;;;;;5059864;28;20461;-48
2023/03/22 06:06:55;;;;;;;5.38;2.47;;;13.40;65.90;;;;;;5064415;28;20500;-52
2023/03/22 06:09:36;;;;;;;4.05;2.22;;;13.40;65.80;;;;;;5061664;28;20093;-49
2023/03/22 06:12:06;;;;;;;5.13;3.22;;;13.50;65.90;;;;;;5066307;28;20423;-49
2023/03/22 06:14:33;;;;;;;6.93;2.28;;;13.50;65.80;;;;;;5089317;28;20389;-49
2023/03/22 06:17:18;;;;;;;4.88;1.88;;;13.50;65.70;;;;;;5088027;28;20054;-50
2023/03/22 06:19:46;;;;;;;6.30;2.45;;;13.50;65.60;;;;;;5070748;28;20652;-53
2023/03/22 06:22:14;;;;;;;5.47;2.47;;;13.50;65.60;;;;;;5072225;28;20043;-50
2023/03/22 06:24:42;;;;;;;5.10;2.08;;;13.60;65.70;;;;;;5070937;28;20109;-50
2023/03/22 06:27:13;;;;;;;3.25;1.98;;;13.60;65.70;;;;;;5065480;28;20531;-47
2023/03/22 06:29:40;;;;;;;5.43;2.08;;;13.60;65.70;;;;;;5084953;28;20044;-49
2023/03/22 06:32:07;;;;;;;4.75;2.38;;;13.70;65.70;;;;;;5071371;28;20613;-51
2023/03/22 06:34:34;;;;;;;5.88;2.13;;;13.70;65.60;;;;;;5064673;28;20048;-50
2023/03/22 06:37:01;;;;;;;2.70;2.03;;;13.70;65.60;;;;;;5071603;28;20054;-48
2023/03/22 06:39:34;;;;;;;3.35;1.90;;;13.70;65.50;;;;;;5064260;28;20068;-49
2023/03/22 06:42:02;;;;;;;3.15;1.75;;;13.80;65.60;;;;;;5060840;28;20802;-50
2023/03/22 06:44:29;;;;;;;3.92;2.10;;;13.80;65.40;;;;;;5066009;28;20050;-51
2023/03/22 06:47:14;;;;;;;4.57;2.60;;;13.90;65.30;;;;;;5070134;28;20070;-50
2023/03/22 06:49:41;;;;;;;4.80;2.00;;;13.90;65.10;;;;;;5080881;28;20052;-50
2023/03/22 06:52:15;;;;;;;3.83;2.10;;;13.90;65.10;;;;;;5062438;28;20079;-48
2023/03/22 06:54:42;;;;;;;4.97;1.92;;;14.00;65.00;;;;;;5064573;28;20462;-51
2023/03/22 06:57:09;;;;;;;3.08;1.88;;;14.00;65.00;;;;;;5054904;28;20040;-49
2023/03/22 06:59:36;;;;;;;3.72;2.00;;;14.00;65.00;;;;;;5073917;28;20415;-55
2023/03/22 07:02:03;;;;;;;6.38;1.88;;;14.10;64.80;;;;;;5084937;28;20043;-49
2023/03/22 07:04:31;;;;;;;3.05;1.98;;;14.10;64.80;;;;;;5083438;28;20124;-49
2023/03/22 07:06:58;;;;;;;3.42;2.00;;;14.20;64.70;;;;;;5071979;28;20044;-52
2023/03/22 07:09:26;;;;;;;7.38;2.83;;;14.20;64.50;;;;;;5074079;28;20047;-49
2023/03/22 07:11:56;;;;;;;3.60;2.50;;;14.20;64.40;;;;;;5073346;28;20752;-50
2023/03/22 07:14:23;;;;;;;5.72;2.42;;;14.20;64.20;;;;;;5071483;28;20135;-48
2023/03/22 07:16:57;;;;;;;5.28;2.13;;;14.30;64.10;;;;;;5070783;28;20075;-54
2023/03/22 07:19:26;;;;;;;5.63;1.88;;;14.40;64.00;;;;;;5075684;28;20472;-48
2023/03/22 07:21:54;;;;;;;2.35;1.77;;;14.30;63.80;;;;;;5074152;28;20105;-49
2023/03/22 07:24:22;;;;;;;2.92;1.75;;;14.30;63.60;;;;;;5075255;28;20040;-48
2023/03/22 07:26:49;;;;;;;4.00;2.00;;;14.30;63.50;;;;;;5075350;28;20563;-47
2023/03/22 07:29:20;;;;;;;3.40;1.60;;;14.40;63.50;;;;;;5075369;28;20048;-49
2023/03/22 07:31:47;;;;;;;3.20;2.08;;;14.40;63.40;;;;;;5073360;28;20401;-47
2023/03/22 07:34:27;;;;;;;3.92;1.42;;;14.40;63.20;;;;;;5069471;28;20135;-49
2023/03/22 07:37:03;;;;;;;2.92;1.77;;;14.40;63.20;;;;;;5075328;28;20571;-51
2023/03/22 07:39:30;;;;;;;6.35;1.80;;;14.40;63.20;;;;;;5069955;28;20064;-52
2023/03/22 07:41:57;;;;;;;3.25;1.50;;;14.40;63.20;;;;;;5091882;28;20032;-54
2023/03/22 07:44:25;;;;;;;3.97;2.05;;;14.40;63.10;;;;;;5087750;28;20101;-48
2023/03/22 07:47:26;;;;;;;4.35;1.98;;;14.50;63.00;;;;;;5092742;28;20129;-51
2023/03/22 07:50:26;;;;;;;2.92;1.60;;;14.60;63.00;;;;;;5067420;28;20080;-51
2023/03/22 07:52:55;;;;;;;2.70;1.85;;;14.60;62.60;;;;;;5085049;28;20059;-51
2023/03/22 07:55:22;;;;;;;6.15;1.45;;;14.70;62.40;;;;;;5074591;28;20407;-48
2023/03/22 07:57:50;;;;;;;4.57;1.60;;;14.70;62.20;;;;;;5074174;28;20036;-49
2023/03/22 08:00:17;;;;;;;4.40;1.70;;;14.70;62.50;;;;;;5069268;28;20032;-48
2023/03/22 08:03:13;;;;;;;4.97;2.10;;;14.70;62.00;;;;;;5043839;28;20145;-48
2023/03/22 08:06:06;;;;;;;2.65;1.60;;;14.80;62.00;;;;;;5054828;28;20052;-50
2023/03/22 08:08:35;;;;;;;3.63;1.50;;;14.80;61.80;;;;;;5069572;28;20063;-51
2023/03/22 08:11:03;;;;;;;2.28;1.23;;;14.90;61.80;;;;;;5073406;28;20527;-49
2023/03/22 08:13:30;;;;;;;5.25;2.15;;;14.90;61.50;;;;;;5090412;28;20062;-51
2023/03/22 08:15:57;;;;;;;3.70;1.58;;;14.90;61.40;;;;;;5073681;28;20062;-47
2023/03/22 08:18:24;;;;;;;1.63;1.17;;;14.90;61.50;;;;;;5073631;28;20644;-50
2023/03/22 08:20:53;;;;;;;4.57;1.45;;;15.00;61.50;;;;;;5074289;28;20041;-49
2023/03/22 08:23:20;;;;;;;3.42;1.63;;;15.00;61.60;;;;;;5083459;28;20028;-48
2023/03/22 08:26:35;;;;;;;3.27;1.80;;;15.00;61.20;;;;;;5088592;28;20606;-48
2023/03/22 08:29:10;;;;;;;4.93;1.33;;;15.10;60.80;;;;;;5067077;28;20129;-49
2023/03/22 08:31:37;;;;;;;3.33;1.40;;;15.20;60.60;;;;;;5070315;28;20607;-50
2023/03/22 08:34:04;;;;;;;3.13;1.20;;;15.20;60.40;;;;;;5064518;28;20720;-47
2023/03/22 08:36:31;;;;;;;4.18;1.88;;;15.30;60.20;;;;;;5074233;28;20647;-49
2023/03/22 08:39:01;;;;;;;2.97;1.70;;;15.30;60.40;;;;;;5081312;28;20127;-48
2023/03/22 08:41:49;;;;;;;3.60;1.70;;;15.40;60.20;;;;;;5071338;28;20185;-49
2023/03/22 08:44:18;;;;;;;3.28;1.58;;;15.40;60.00;;;;;;5070692;28;20044;-54
2023/03/22 08:46:44;;;;;;;3.85;1.33;;;15.50;59.70;;;;;;5065277;28;20067;-51
2023/03/22 08:49:11;;;;;;;2.75;1.90;;;15.50;59.50;;;;;;5063705;28;20039;-51
2023/03/22 08:51:47;;;;;;;6.03;2.22;;;15.60;59.40;;;;;;5077529;28;20036;-52
2023/03/22 08:54:32;;;;;;;4.72;2.03;;;15.60;59.00;;;;;;5069749;28;20052;-48
2023/03/22 08:57:02;;;;;;;2.75;1.88;;;15.70;58.60;;;;;;5091205;28;20040;-50
2023/03/22 08:59:48;;;;;;;3.53;1.60;;;15.70;58.20;;;;;;5080843;28;20472;-51
2023/03/22 09:02:47;;;;;;;2.78;1.70;;;15.70;58.00;;;;;;5015310;28;20056;-48
2023/03/22 09:05:13;;;;;;;3.92;1.20;;;15.70;57.70;;;;;;5070292;28;20048;-52
2023/03/22 09:07:41;;;;;;;2.55;1.90;;;15.70;57.90;;;;;;5069042;28;20056;-52
2023/03/22 09:10:16;;;;;;;4.75;1.83;;;15.80;57.80;;;;;;5071538;28;20431;-51
2023/03/22 09:12:45;;;;;;;4.43;1.50;;;15.80;57.80;;;;;;5071532;28;20151;-51
2023/03/22 09:15:12;;;;;;;2.35;1.20;;;15.80;57.50;;;;;;5091332;28;20585;-51
2023/03/22 09:17:42;;;;;;;1.85;1.05;;;15.90;57.30;;;;;;5069705;28;20776;-52
2023/03/22 09:20:09;;;;;;;3.83;1.27;;;15.90;57.20;;;;;;5087081;28;20089;-52
2023/03/22 09:22:41;;;;;;;3.90;1.47;;;16.00;56.80;;;;;;5065297;28;20072;-50
2023/03/22 09:25:10;;;;;;;4.88;2.25;;;16.00;56.80;;;;;;5063387;28;20032;-50
2023/03/22 09:27:41;;;;;;;3.05;1.15;;;16.10;56.60;;;;;;5063697;28;20052;-49
2023/03/22 09:30:08;;;;;;;4.50;1.67;;;16.20;56.60;;;;;;5085425;28;20558;-52
2023/03/22 09:32:34;;;;;;;5.43;1.90;;;16.20;56.30;;;;;;5071289;28;20050;-48
2023/03/22 09:35:03;;;;;;;5.60;1.48;;;16.30;56.20;;;;;;5072332;28;20059;-50
2023/03/22 09:37:38;;;;;;;3.10;1.15;;;16.30;56.10;;;;;;5068890;28;20048;-51
2023/03/22 09:40:06;;;;;;;2.53;1.20;;;16.50;56.50;;;;;;5066931;28;20074;-51
2023/03/22 09:42:41;;;;;;;4.00;1.55;;;16.50;56.20;;;;;;5088392;28;20042;-50
2023/03/22 09:45:15;;;;;;;4.82;1.65;;;16.60;55.60;;;;;;5062674;28;20044;-49
2023/03/22 09:47:46;;;;;;;4.90;1.45;;;16.70;55.20;;;;;;5064290;28;20050;-51
2023/03/22 09:50:28;;;;;;;4.15;1.75;;;16.70;55.00;;;;;;5068676;28;20412;-49
2023/03/22 09:52:59;;;;;;;3.90;1.63;;;16.80;54.50;;;;;;5078456;28;20040;-51
2023/03/22 09:55:51;;;;;;;3.38;1.25;;;16.70;55.00;;;;;;5070488;28;20041;-48
2023/03/22 09:58:26;;;;;;;5.03;1.65;;;16.80;54.60;;;;;;5077764;28;20040;-49
2023/03/22 10:01:05;;;;;;;5.43;1.40;;;16.80;54.50;;;;;;5073365;28;20075;-52
2023/03/22 10:04:09;;;;;;;3.45;1.52;;;16.80;54.20;;;;;;5072228;28;20044;-49
2023/03/22 10:06:36;;;;;;;6.30;2.03;;;16.70;54.20;;;;;;5078801;28;20056;-49
2023/03/22 10:09:25;;;;;;;5.78;1.45;;;16.70;54.20;;;;;;5078709;28;20119;-48
2023/03/22 10:12:10;;;;;;;3.63;1.42;;;16.70;53.50;;;;;;5081404;28;20093;-50
2023/03/22 10:14:44;;;;;;;3.63;1.27;;;16.60;53.60;;;;;;5082791;28;20211;-48
2023/03/22 10:17:15;;;;;;;3.90;1.30;;;16.60;54.20;;;;;;5083161;28;20051;-48
2023/03/22 10:20:10;;;;;;;3.63;1.20;;;16.60;54.00;;;;;;5081653;28;20551;-51
2023/03/22 10:22:42;;;;;;;5.18;1.20;;;16.50;53.70;;;;;;5084533;28;20582;-48
2023/03/22 10:25:17;;;;;;;9.00;1.30;;;16.60;54.40;;;;;;5077447;28;20046;-51
2023/03/22 10:27:47;;;;;;;5.28;1.50;;;16.50;54.10;;;;;;5072817;28;20504;-50
2023/03/22 10:30:19;;;;;;;4.40;1.50;;;16.60;54.20;;;;;;5075122;28;20044;-51
2023/03/22 10:32:51;;;;;;;5.25;1.55;;;16.60;53.90;;;;;;5075373;28;20040;-52
2023/03/22 10:35:24;;;;;;;4.28;1.52;;;16.60;54.10;;;;;;5083992;28;20043;-50
2023/03/22 10:37:53;;;;;;;6.50;1.48;;;16.70;54.20;;;;;;5059097;28;20037;-47
2023/03/22 10:40:28;;;;;;;4.97;1.67;;;16.70;54.20;;;;;;5077918;28;20060;-47
2023/03/22 10:43:12;;;;;;;2.97;1.23;;;16.70;54.20;;;;;;5068276;28;20052;-52
2023/03/22 10:45:41;;;;;;;4.18;1.48;;;16.80;53.90;;;;;;5072039;28;20040;-51
2023/03/22 10:48:31;;;;;;;5.38;1.80;;;16.90;54.10;;;;;;5075467;28;20043;-49
2023/03/22 10:51:03;;;;;;;3.03;1.48;;;16.90;53.50;;;;;;5073456;28;20044;-50
2023/03/22 10:53:48;;;;;;;6.28;1.50;;;17.00;53.70;;;;;;5072114;28;20029;-51
2023/03/22 10:56:18;;;;;;;4.18;2.03;;;17.00;53.40;;;;;;5082928;28;20067;-50
2023/03/22 10:58:47;;;;;;;4.53;1.35;;;17.00;53.50;;;;;;5082993;28;20047;-47
2023/03/22 11:01:30;;;;;;;3.20;1.25;;;17.10;53.60;;;;;;5080482;28;20047;-49
2023/03/22 11:04:03;;;;;;;4.07;1.17;;;17.00;53.40;;;;;;5069202;28;20405;-49
2023/03/22 11:06:35;;;;;;;3.47;1.35;;;17.10;53.20;;;;;;5075240;28;20047;-49
2023/03/22 11:09:23;;;;;;;2.40;1.02;;;17.10;53.50;;;;;;5086290;28;20054;-53
2023/03/22 11:11:58;;;;;;;3.65;1.67;;;17.20;53.20;;;;;;5087632;28;20067;-50
2023/03/22 11:14:35;;;;;;;4.18;1.90;;;17.30;53.30;;;;;;5079506;28;20048;-53
2023/03/22 11:17:05;;;;;;;4.35;1.33;;;17.30;52.70;;;;;;5082988;28;20051;-51
2023/03/22 11:19:37;;;;;;;3.40;2.08;;;17.30;52.40;;;;;;5072261;28;20122;-53
2023/03/22 11:22:23;;;;;;;2.88;1.08;;;17.30;52.20;;;;;;5074999;28;20828;-53
2023/03/22 11:24:50;;;;;;;4.88;1.35;;;17.30;52.60;;;;;;5067557;28;20048;-52
2023/03/22 11:27:30;;;;;;;3.92;1.38;;;17.30;52.70;;;;;;5087464;28;20127;-53
2023/03/22 11:29:58;;;;;;;3.17;1.05;;;17.40;52.30;;;;;;5069833;28;20052;-48
2023/03/22 11:32:27;;;;;;;8.98;1.52;;;17.30;52.40;;;;;;5073398;28;20063;-51
2023/03/22 11:35:03;;;;;;;2.65;1.27;;;17.30;52.10;;;;;;5080943;28;20043;-49
2023/03/22 11:37:30;;;;;;;5.70;1.13;;;17.30;51.80;;;;;;5080684;28;20036;-52
2023/03/22 11:40:00;;;;;;;2.40;1.45;;;17.30;52.10;;;;;;5077830;28;20041;-50
2023/03/22 11:42:27;;;;;;;2.45;0.80;;;17.30;52.20;;;;;;5074494;28;20086;-52
2023/03/22 11:44:55;;;;;;;2.47;1.00;;;17.20;52.50;;;;;;5059399;28;20047;-52
2023/03/22 11:47:25;;;;;;;4.97;1.05;;;17.20;52.50;;;;;;5080971;28;20043;-52
2023/03/22 11:49:56;;;;;;;5.00;1.15;;;17.20;52.30;;;;;;5087181;28;20126;-50
2023/03/22 11:52:26;;;;;;;1.85;0.88;;;17.20;52.30;;;;;;5084344;28;20183;-51
2023/03/22 11:54:57;;;;;;;2.72;0.80;;;17.20;52.20;;;;;;5073286;28;20056;-53
2023/03/22 11:57:30;;;;;;;2.47;1.25;;;17.10;52.30;;;;;;5075081;28;20419;-52
2023/03/22 11:59:59;;;;;;;;;;;17.20;52.20;;;;;;5080894;28;20139;-52
2023/03/22 12:02:37;;;;;;;2.40;1.13;;;17.20;52.60;;;;;;5084182;28;19921;-50
2023/03/22 12:05:16;;;;;;;2.70;0.85;;;17.20;52.30;;;;;;5079618;28;20127;-52
2023/03/22 12:07:45;;;;;;;3.83;0.90;;;17.20;52.30;;;;;;5078891;28;20078;-52
2023/03/22 12:10:21;;;;;;;0.98;0.70;;;17.10;52.70;;;;;;5082888;28;20412;-51
2023/03/22 12:13:12;;;;;;;3.22;1.13;;;17.10;52.50;;;;;;5090402;28;20054;-53
2023/03/22 12:15:47;;;;;;;2.70;1.13;;;17.10;52.50;;;;;;5079949;28;20109;-52
2023/03/22 12:18:31;;;;;;;3.47;0.98;;;17.10;52.60;;;;;;5080975;28;20036;-50
2023/03/22 12:20:59;;;;;;;3.78;1.13;;;17.00;52.30;;;;;;5075786;28;20063;-52
2023/03/22 12:23:29;;;;;;;3.10;0.90;;;17.00;52.70;;;;;;5083203;28;20040;-53
2023/03/22 12:26:01;;;;;;;6.18;2.35;;;17.00;52.80;;;;;;5080887;28;20513;-52
2023/03/22 12:28:44;;;;;;;7.43;1.63;;;17.00;52.80;;;;;;5071818;28;20037;-53
2023/03/22 12:31:20;;;;;;;1.58;1.35;;;17.00;53.00;;;;;;5073480;28;20036;-51
2023/03/22 12:33:51;;;;;;;5.13;0.90;;;17.00;52.70;;;;;;5081140;28;20052;-52
2023/03/22 12:36:41;;;;;;;2.65;1.05;;;17.00;53.00;;;;;;5091902;28;20399;-51
2023/03/22 12:39:17;;;;;;;3.08;1.00;;;17.00;53.00;;;;;;5082732;28;20032;-51
2023/03/22 12:41:49;;;;;;;3.55;0.95;;;16.90;53.10;;;;;;5089954;28;20036;-53
2023/03/22 12:44:26;;;;;;;2.28;1.08;;;17.00;53.10;;;;;;5079893;28;20581;-51
2023/03/22 12:47:02;;;;;;;4.53;1.30;;;16.90;52.80;;;;;;5089620;28;20040;-51
2023/03/22 12:49:44;;;;;;;3.38;1.13;;;16.90;52.90;;;;;;5084009;28;20094;-51
2023/03/22 12:52:34;;;;;;;6.55;1.13;;;16.90;53.00;;;;;;5079244;28;20048;-51
2023/03/22 12:55:25;;;;;;;5.28;1.40;;;16.90;53.20;;;;;;5084072;28;20040;-54
2023/03/22 12:57:54;;;;;;;3.42;1.38;;;16.90;53.20;;;;;;5072908;28;20453;-50
2023/03/22 13:00:35;;;;;;;2.75;1.38;;;16.90;53.50;;;;;;5076471;28;20071;-51
2023/03/22 13:03:16;;;;;;;8.40;1.90;;;16.90;53.30;;;;;;5072264;28;20052;-53
2023/03/22 13:05:49;;;;;;;1.63;0.95;;;16.90;53.10;;;;;;5079162;28;20131;-53
2023/03/22 13:08:21;;;;;;;3.08;1.05;;;16.90;53.20;;;;;;5081187;28;20428;-51
2023/03/22 13:10:58;;;;;;;5.32;1.27;;;16.90;53.10;;;;;;5077871;28;20058;-51
2023/03/22 13:13:26;;;;;;;1.50;1.25;;;16.90;53.20;;;;;;5085492;28;20052;-52
2023/03/22 13:16:07;;;;;;;3.22;1.30;;;16.90;53.40;;;;;;5081237;28;20530;-52
2023/03/22 13:18:37;;;;;;;3.60;1.10;;;16.90;53.30;;;;;;5083893;28;20036;-52
2023/03/22 13:21:26;;;;;;;2.75;1.35;;;16.90;53.30;;;;;;5079154;28;20040;-52
2023/03/22 13:24:08;;;;;;;2.35;1.10;;;16.90;53.20;;;;;;5085587;28;20408;-53
2023/03/22 13:26:42;;;;;;;;;;;17.00;53.30;;;;;;5070742;28;20044;-50